Terminal Aerodrome Forecast
Issued by NWS Buffalo, NY

Home | Current Version | Previous Version | Text Only | Print | Product List | Glossary On
Versions: 1 2 3 4 5 6 7 8 9 10 11 12 13 14 15 16 17 18 19 20 21 22 23 24 25 26
000
FTUS41 KBUF 050314 AAA
TAFART
TAF AMD
KART 050314Z 0503/0524 19004KT P6SM SKC
     FM050600 VRB03KT 6SM BR SKC
      TEMPO 0509/0512 4SM BR
     FM051300 23004KT P6SM SKC
     FM051600 24010KT P6SM SKC=

USA.gov is the U.S. government's official web portal to all federal, state and local government web resources and services.